Main page
METAR-TAF:

METAR-TAF

Airports :

Zahedan Airport

Zahedan, Iran

latitude: 29-28N, longitude: 060-53E, elevation: 1370 m

Current weather observation

The report was made 37 minutes ago, at 03:00 UTC
Wind 4 kt from the South/Southeast
Temperature 15°C
Humidity 27%
Pressure 1022 hPa
Visibility 10 km or more
no clouds below 1500 m and no cumulonimbus

METAR: OIZH 230300Z 16004KT CAVOK 15/M04 Q1021 A3017 NOSIG

Time: 07:07 (03:37 UTC)

Forecast

The report was made 4 hours and 2 minutes ago, at 23:35 UTC
Forecast valid from 23 at 00 UTC to 24 at 06 UTC
Wind 10 kt from the North
Visibility: 8000 m
Temporary
from 23 at 12 UTC to 23 at 15 UTC
Wind 16 kt from the North

TAF: OIZH 222335Z 2300/2406 01005MPS 8000 NSC TEMPO 2312/2315 01008MPS

Weather observations and forecasts of more than 4000 airports (METAR and TAF reports).

The available stations are represented by yellow and red dots on the map.

Hover mouse over dot to see the name of the station.

Then click to see weather observations and forecasts.

To change the map : click on the green buttons with a black cross to zoom in, on the green button with a dash to zoom out, or on the green arrows for adjacent maps.


METAR-TAF: